Time;durP1;ratioP1;P1;durP2;ratioP2;P2;SDS_P1;SDS_P2;PMS_P1;PMS_P2;Temp;Humidity;BMP_temperature;BMP_pressure;BME280_temperature;BME280_humidity;BME280_pressure;Samples;Min_cycle;Max_cycle;Signal;HPM_P1;HPM_P2
2023/12/12 00:00:29;;;;;;;52.75;18.15;;;;;;;1.70;100.00;100030.50;5035295;28;20030;-78
2023/12/12 00:02:59;;;;;;;85.53;21.25;;;;;;;1.54;100.00;100005.81;5033957;28;20022;-79
2023/12/12 00:05:24;;;;;;;64.57;19.83;;;;;;;1.79;100.00;100035.59;5041920;28;20417;-79
2023/12/12 00:07:50;;;;;;;66.53;18.65;;;;;;;1.73;100.00;100040.69;5034792;28;20506;-80
2023/12/12 00:10:15;;;;;;;61.53;17.95;;;;;;;1.09;100.00;99980.75;5034958;28;20038;-78
2023/12/12 00:12:41;;;;;;;60.58;18.65;;;;;;;1.48;100.00;100043.25;5034872;28;20029;-81
2023/12/12 00:15:07;;;;;;;38.45;16.70;;;;;;;1.27;100.00;100025.31;5041417;28;20025;-79
2023/12/12 00:17:32;;;;;;;38.08;16.73;;;;;;;1.04;100.00;99982.19;5055162;28;20040;-77
2023/12/12 00:19:58;;;;;;;36.78;16.05;;;;;;;1.42;100.00;100030.75;5054859;28;20033;-79
2023/12/12 00:22:23;;;;;;;37.45;15.65;;;;;;;1.65;100.00;100048.56;5054744;28;20025;-79
2023/12/12 00:24:48;;;;;;;40.05;16.83;;;;;;;1.45;100.00;100011.22;5053501;28;20033;-80
2023/12/12 00:27:14;;;;;;;41.75;15.55;;;;;;;1.38;100.00;100003.16;5037688;28;20041;-80
2023/12/12 00:29:40;;;;;;;38.35;15.63;;;;;;;1.72;100.00;100018.03;5035283;28;20037;-80
2023/12/12 00:32:06;;;;;;;41.50;16.05;;;;;;;1.63;100.00;99983.00;5033181;28;20096;-79
2023/12/12 00:34:35;;;;;;;37.95;15.27;;;;;;;1.77;100.00;100015.72;5034702;28;20029;-79
2023/12/12 00:37:01;;;;;;;44.33;17.15;;;;;;;2.09;100.00;100027.25;5046592;28;20029;-79
2023/12/12 00:39:26;;;;;;;42.95;17.23;;;;;;;2.12;100.00;99996.16;5054581;28;20021;-79
2023/12/12 00:41:51;;;;;;;53.42;24.88;;;;;;;2.01;100.00;99989.41;5053229;28;20029;-80
2023/12/12 00:44:17;;;;;;;67.32;35.13;;;;;;;1.99;100.00;99977.44;5052897;28;20056;-83
2023/12/12 00:46:42;;;;;;;35.30;14.57;;;;;;;1.53;100.00;99925.34;5044220;28;20037;-79
2023/12/12 00:49:08;;;;;;;53.05;18.48;;;;;;;1.95;100.00;99982.19;5034149;28;20025;-79
2023/12/12 00:51:33;;;;;;;38.03;18.92;;;;;;;2.03;100.00;99984.00;5034301;28;20029;-78
2023/12/12 00:53:59;;;;;;;36.03;17.17;;;;;;;1.72;100.00;99928.63;5032917;28;20030;-80
2023/12/12 00:56:24;;;;;;;36.22;14.50;;;;;;;1.90;100.00;99926.66;5041210;28;20512;-79
2023/12/12 00:58:50;;;;;;;33.50;14.98;;;;;;;2.18;100.00;99982.31;5053669;28;20075;-80
2023/12/12 01:01:15;;;;;;;36.45;15.18;;;;;;;2.18;100.00;99957.84;5054301;28;20036;-80
2023/12/12 01:03:41;;;;;;;35.75;15.80;;;;;;;1.74;100.00;99926.66;5053104;28;20078;-80
2023/12/12 01:06:06;;;;;;;39.15;17.48;;;;;;;2.01;100.00;99954.41;5045791;28;20021;-79
2023/12/12 01:08:33;;;;;;;41.42;16.92;;;;;;;2.45;100.00;99984.75;5034667;28;20029;-79
2023/12/12 01:10:58;;;;;;;50.13;20.38;;;;;;;1.85;100.00;99943.91;5034012;28;20030;-78
2023/12/12 01:13:24;;;;;;;46.45;24.42;;;;;;;1.76;100.00;99950.97;5032794;28;20029;-80
2023/12/12 01:15:49;;;;;;;48.72;25.02;;;;;;;1.88;100.00;99940.94;5034149;28;20022;-80
2023/12/12 01:18:15;;;;;;;34.92;18.60;;;;;;;1.88;100.00;99944.41;5032518;28;20127;-79
2023/12/12 01:20:40;;;;;;;37.50;17.40;;;;;;;1.99;100.00;99951.94;5033237;28;20044;-79
2023/12/12 01:23:05;;;;;;;36.47;16.40;;;;;;;2.06;100.00;99954.72;5032093;28;20026;-79
2023/12/12 01:25:31;;;;;;;37.63;17.52;;;;;;;2.09;100.00;99953.59;5036097;28;20021;-78
2023/12/12 01:27:56;;;;;;;33.60;14.98;;;;;;;1.96;100.00;99956.69;5037738;28;20091;-78
2023/12/12 01:30:22;;;;;;;35.05;16.25;;;;;;;2.11;100.00;99955.06;5031925;28;20029;-82
2023/12/12 01:32:47;;;;;;;35.58;15.15;;;;;;;2.52;100.00;99983.13;5033613;28;20135;-78
2023/12/12 01:35:13;;;;;;;35.47;16.45;;;;;;;2.08;100.00;99912.47;5033871;28;20025;-79
2023/12/12 01:37:38;;;;;;;32.80;15.02;;;;;;;2.15;100.00;99969.53;5053305;28;20036;-79
2023/12/12 01:40:04;;;;;;;35.42;14.80;;;;;;;1.90;100.00;99952.94;5053283;28;20025;-79
2023/12/12 01:42:30;;;;;;;34.35;15.63;;;;;;;1.73;100.00;99925.00;5052877;28;20029;-80
2023/12/12 01:44:56;;;;;;;36.22;15.98;;;;;;;2.33;100.00;99958.81;5052819;28;20469;-79
2023/12/12 01:47:21;;;;;;;37.58;16.80;;;;;;;2.26;100.00;99978.06;5052566;28;20425;-79
2023/12/12 01:49:47;;;;;;;38.55;19.92;;;;;;;2.03;100.00;99946.38;5052924;28;20107;-78
2023/12/12 01:52:13;;;;;;;37.55;16.13;;;;;;;2.12;100.00;99961.13;5052048;28;20419;-79
2023/12/12 01:54:44;;;;;;;38.33;15.90;;;;;;;2.46;100.00;99973.25;5053258;28;20096;-78
2023/12/12 01:57:11;;;;;;;38.17;16.88;;;;;;;2.33;100.00;99966.69;5053183;28;20033;-79
2023/12/12 01:59:37;;;;;;;40.58;17.27;;;;;;;2.29;100.00;99944.34;5052844;28;20021;-79
2023/12/12 02:02:03;;;;;;;39.45;16.50;;;;;;;1.89;100.00;99939.97;5052024;28;20663;-78
2023/12/12 02:04:29;;;;;;;43.72;18.80;;;;;;;1.84;100.00;99945.72;5051772;28;20481;-78
2023/12/12 02:06:57;;;;;;;40.60;17.10;;;;;;;1.91;100.00;99966.91;5052342;28;20480;-79
2023/12/12 02:09:23;;;;;;;37.53;17.00;;;;;;;1.88;100.00;99965.44;5052386;28;20543;-79
2023/12/12 02:11:49;;;;;;;38.78;16.33;;;;;;;1.83;100.00;99903.81;5052306;28;20033;-78
2023/12/12 02:14:14;;;;;;;40.00;16.92;;;;;;;2.04;100.00;99942.72;5052898;28;20396;-79
2023/12/12 02:16:40;;;;;;;38.70;16.35;;;;;;;1.98;100.00;99936.31;5043891;28;20041;-79
2023/12/12 02:19:05;;;;;;;37.05;16.77;;;;;;;2.04;100.00;99938.28;5032579;28;20017;-78
2023/12/12 02:21:30;;;;;;;40.95;16.80;;;;;;;2.10;100.00;99942.06;5032824;28;20095;-79
2023/12/12 02:23:56;;;;;;;39.00;16.77;;;;;;;2.38;100.00;99940.69;5032028;28;20447;-78
2023/12/12 02:26:22;;;;;;;40.88;16.20;;;;;;;2.37;100.00;99959.28;5037581;28;20508;-79
2023/12/12 02:28:48;;;;;;;39.00;17.38;;;;;;;2.01;100.00;99934.19;5052831;28;20040;-79
2023/12/12 02:31:14;;;;;;;41.75;17.58;;;;;;;1.51;100.00;99914.19;5052909;28;20072;-79
2023/12/12 02:33:39;;;;;;;48.97;19.60;;;;;;;1.63;100.00;99933.03;5051642;28;20543;-78
2023/12/12 02:36:05;;;;;;;44.13;18.70;;;;;;;1.72;100.00;99904.97;5056252;28;20033;-82
2023/12/12 02:38:30;;;;;;;44.53;19.05;;;;;;;1.84;100.00;99943.09;5048174;28;20029;-81
2023/12/12 02:40:55;;;;;;;36.97;17.25;;;;;;;1.54;100.00;99910.38;5039662;28;20044;-80
2023/12/12 02:43:21;;;;;;;38.72;16.73;;;;;;;1.49;100.00;99912.66;5038693;28;20425;-81
2023/12/12 02:45:47;;;;;;;46.05;20.02;;;;;;;1.60;100.00;99909.72;5040811;28;20422;-79
2023/12/12 02:48:12;;;;;;;53.10;22.42;;;;;;;1.56;100.00;99903.16;5047613;28;20112;-81
2023/12/12 02:50:37;;;;;;;47.58;22.50;;;;;;;1.47;100.00;99883.94;5040170;28;20039;-78
2023/12/12 02:53:03;;;;;;;44.60;19.77;;;;;;;1.28;100.00;99873.75;5040892;28;20025;-78
2023/12/12 02:55:28;;;;;;;50.72;20.60;;;;;;;0.95;100.00;99826.44;5039502;28;20506;-79
2023/12/12 02:57:54;;;;;;;54.97;20.73;;;;;;;0.95;100.00;99857.94;5049789;28;20029;-83
2023/12/12 03:00:19;;;;;;;47.63;17.77;;;;;;;0.84;100.00;99834.63;5056177;28;20277;-78
2023/12/12 03:02:45;;;;;;;58.45;21.73;;;;;;;1.18;100.00;99902.78;5055756;28;20032;-80
2023/12/12 03:05:10;;;;;;;53.85;20.48;;;;;;;1.11;100.00;99889.50;5054182;28;20036;-80
2023/12/12 03:07:35;;;;;;;56.65;21.38;;;;;;;1.57;100.00;99908.25;5046728;28;20056;-79
2023/12/12 03:10:01;;;;;;;52.90;22.83;;;;;;;1.51;100.00;99895.78;5034383;28;20116;-82
2023/12/12 03:12:26;;;;;;;56.17;22.42;;;;;;;1.54;100.00;99894.63;5033906;28;20532;-80
2023/12/12 03:14:52;;;;;;;54.92;24.50;;;;;;;1.50;100.00;99857.31;5034876;28;20033;-80
2023/12/12 03:17:17;;;;;;;58.45;25.60;;;;;;;1.67;100.00;99862.56;5042103;28;20488;-79
2023/12/12 03:19:42;;;;;;;64.25;25.23;;;;;;;1.29;100.00;99854.34;5032486;28;20477;-79
2023/12/12 03:22:08;;;;;;;51.47;23.95;;;;;;;1.41;100.00;99866.22;5031791;28;20017;-79
2023/12/12 03:24:33;;;;;;;52.95;23.40;;;;;;;1.38;100.00;99858.66;5031967;28;20029;-78
2023/12/12 03:26:59;;;;;;;57.15;28.63;;;;;;;1.57;100.00;99860.97;5032324;28;20021;-78
2023/12/12 03:29:24;;;;;;;52.22;23.98;;;;;;;1.51;100.00;99866.03;5048126;28;20040;-79
2023/12/12 03:31:50;;;;;;;46.40;22.45;;;;;;;1.73;100.00;99854.03;5051508;28;20041;-78
2023/12/12 03:34:16;;;;;;;38.55;18.98;;;;;;;1.91;100.00;99865.16;5051446;28;20044;-78
2023/12/12 03:36:43;;;;;;;45.70;20.05;;;;;;;2.23;100.00;99905.53;5049136;28;20044;-79
2023/12/12 03:39:09;;;;;;;50.40;21.92;;;;;;;2.39;100.00;99917.81;5046015;28;20055;-80
2023/12/12 03:41:34;;;;;;;44.97;21.27;;;;;;;2.45;100.00;99924.22;5051120;28;20057;-80
2023/12/12 03:44:00;;;;;;;49.65;23.27;;;;;;;2.49;100.00;99915.00;5051218;28;20117;-79
2023/12/12 03:46:25;;;;;;;48.28;22.13;;;;;;;2.36;100.00;99905.00;5051153;28;20493;-79
2023/12/12 03:48:51;;;;;;;44.67;21.40;;;;;;;2.48;100.00;99934.44;5043063;28;20416;-78
2023/12/12 03:51:16;;;;;;;42.20;19.92;;;;;;;2.45;100.00;99903.16;5051081;28;20091;-78
2023/12/12 03:53:41;;;;;;;53.42;25.65;;;;;;;2.57;100.00;99939.47;5051715;28;20468;-79
2023/12/12 03:56:07;;;;;;;57.15;27.17;;;;;;;2.64;100.00;99963.34;5051040;28;20033;-82
2023/12/12 03:58:33;;;;;;;58.30;26.85;;;;;;;2.31;100.00;99905.53;5047029;28;20143;-81
2023/12/12 04:00:58;;;;;;;56.70;23.80;;;;;;;2.24;100.00;99916.88;5051694;28;20034;-80
2023/12/12 04:03:24;;;;;;;43.58;21.88;;;;;;;2.36;100.00;99942.66;5049433;28;20029;-79
2023/12/12 04:05:49;;;;;;;48.42;20.60;;;;;;;2.38;100.00;99903.84;5050684;28;20036;-82
2023/12/12 04:08:15;;;;;;;67.60;29.42;;;;;;;2.45;100.00;99929.47;5050687;28;20459;-80
2023/12/12 04:10:40;;;;;;;61.85;26.95;;;;;;;2.42;100.00;99931.47;5051319;28;20043;-79
2023/12/12 04:13:05;;;;;;;80.10;34.65;;;;;;;2.37;100.00;99912.75;5050725;28;20061;-80
2023/12/12 04:15:31;;;;;;;53.88;26.00;;;;;;;2.54;100.00;99934.56;5050003;28;20078;-81
2023/12/12 04:17:56;;;;;;;55.17;26.33;;;;;;;2.68;100.00;99954.09;5049882;28;20390;-79
2023/12/12 04:20:22;;;;;;;50.25;25.17;;;;;;;2.41;100.00;99950.91;5031189;28;20025;-78
2023/12/12 04:22:47;;;;;;;52.63;28.38;;;;;;;2.57;100.00;99933.41;5030680;28;20033;-79
2023/12/12 04:25:13;;;;;;;53.22;28.88;;;;;;;2.70;100.00;99938.94;5030942;28;20029;-79
2023/12/12 04:27:38;;;;;;;56.55;29.42;;;;;;;2.32;100.00;99899.25;5031164;28;20022;-78
2023/12/12 04:30:05;;;;;;;58.00;30.20;;;;;;;2.87;100.00;99944.16;5047078;28;20124;-79
2023/12/12 04:32:31;;;;;;;57.00;26.73;;;;;;;2.82;100.00;99963.09;5049102;28;20049;-78
2023/12/12 04:34:57;;;;;;;62.53;35.10;;;;;;;2.55;100.00;99932.75;5053431;28;20056;-78
2023/12/12 04:37:22;;;;;;;557.42;292.02;;;;;;;2.61;100.00;99946.03;5052909;28;20063;-79
2023/12/12 04:39:48;;;;;;;83.38;41.53;;;;;;;2.33;100.00;99894.81;5049016;28;20048;-79
2023/12/12 04:42:13;;;;;;;71.97;37.65;;;;;;;2.76;100.00;99943.53;5053212;28;20021;-78
2023/12/12 04:44:42;;;;;;;77.80;51.67;;;;;;;2.39;100.00;99916.03;5054471;28;20036;-79
2023/12/12 04:47:08;;;;;;;70.50;39.17;;;;;;;2.75;100.00;99931.34;5041790;28;20391;-80
2023/12/12 04:49:34;;;;;;;66.28;39.13;;;;;;;2.98;100.00;99947.22;5043789;28;20512;-80
2023/12/12 04:51:59;;;;;;;68.07;43.55;;;;;;;2.59;100.00;99929.59;5032987;28;20022;-80
2023/12/12 04:54:25;;;;;;;59.70;35.85;;;;;;;2.32;100.00;99880.84;5034425;28;20100;-79
2023/12/12 04:56:50;;;;;;;48.95;26.27;;;;;;;2.80;100.00;99936.94;5032426;28;20116;-80
2023/12/12 04:59:15;;;;;;;46.70;24.80;;;;;;;3.04;100.00;99945.69;5042351;28;20060;-79
2023/12/12 05:01:42;;;;;;;49.95;26.42;;;;;;;2.76;100.00;99933.00;5048480;28;20452;-82
2023/12/12 05:04:07;;;;;;;46.67;24.92;;;;;;;2.67;100.00;99954.25;5033629;28;20036;-80
2023/12/12 05:06:32;;;;;;;41.65;19.58;;;;;;;2.61;100.00;99918.91;5051100;28;20024;-78
2023/12/12 05:08:58;;;;;;;42.53;18.48;;;;;;;2.74;100.00;99949.97;5049641;28;20025;-80
2023/12/12 05:11:23;;;;;;;46.00;20.23;;;;;;;2.55;100.00;99959.88;5045451;28;20112;-80
2023/12/12 05:13:49;;;;;;;44.15;19.55;;;;;;;2.51;100.00;99931.44;5041852;28;20044;-79
2023/12/12 05:16:15;;;;;;;43.55;19.90;;;;;;;2.37;100.00;99933.78;5051760;28;20564;-79
2023/12/12 05:18:41;;;;;;;43.35;18.80;;;;;;;2.45;100.00;99937.38;5050764;28;20028;-79
2023/12/12 05:21:06;;;;;;;42.38;20.50;;;;;;;2.68;100.00;99951.47;5040164;28;20022;-81
2023/12/12 05:23:32;;;;;;;42.75;19.02;;;;;;;2.39;100.00;99931.81;5048359;28;20599;-79
2023/12/12 05:25:57;;;;;;;41.05;19.02;;;;;;;2.84;100.00;99960.28;5053314;28;20029;-80
2023/12/12 05:28:23;;;;;;;41.33;18.90;;;;;;;3.00;100.00;99955.78;5052097;28;20037;-79
2023/12/12 05:30:48;;;;;;;41.15;18.58;;;;;;;2.97;100.00;99961.38;5035829;28;20494;-78
2023/12/12 05:33:14;;;;;;;36.13;18.02;;;;;;;2.72;100.00;99944.06;5015516;28;20030;-81
2023/12/12 05:35:39;;;;;;;41.63;18.63;;;;;;;2.88;100.00;99945.78;5033011;28;20473;-79
2023/12/12 05:38:06;;;;;;;43.88;21.02;;;;;;;2.68;100.00;99954.09;5033121;28;20033;-79
2023/12/12 05:40:32;;;;;;;49.58;24.48;;;;;;;2.73;100.00;99953.59;5032997;28;20029;-79
2023/12/12 05:42:57;;;;;;;45.85;20.90;;;;;;;2.35;100.00;99887.56;5032797;28;20481;-80
2023/12/12 05:45:23;;;;;;;51.33;25.48;;;;;;;2.94;100.00;99948.56;5032670;28;20108;-78
2023/12/12 05:47:48;;;;;;;50.42;23.45;;;;;;;2.90;100.00;99968.34;5015107;28;20041;-80
2023/12/12 05:50:14;;;;;;;50.03;24.92;;;;;;;2.76;100.00;99969.06;5022593;28;20517;-79
2023/12/12 05:52:39;;;;;;;53.28;27.20;;;;;;;2.78;100.00;99973.16;4995268;28;20083;-79
2023/12/12 05:55:05;;;;;;;53.08;28.02;;;;;;;2.48;100.00;99966.81;5012828;28;20498;-79
2023/12/12 05:57:32;;;;;;;65.43;36.58;;;;;;;2.44;100.00;99948.91;5012815;28;20033;-79
2023/12/12 05:59:58;;;;;;;61.70;37.65;;;;;;;2.34;100.00;99976.22;5028065;28;20048;-78
2023/12/12 06:02:24;;;;;;;91.65;63.65;;;;;;;2.22;100.00;99956.50;5032550;28;20030;-78
2023/12/12 06:04:49;;;;;;;108.03;81.03;;;;;;;2.50;100.00;99974.56;5032414;28;20021;-79
2023/12/12 06:07:14;;;;;;;117.78;98.18;;;;;;;2.42;100.00;99967.50;5032313;28;20513;-78
2023/12/12 06:09:41;;;;;;;67.13;45.67;;;;;;;2.32;100.00;99956.34;5025510;28;20032;-79
2023/12/12 06:12:07;;;;;;;51.72;29.90;;;;;;;2.62;100.00;99957.41;5032232;28;20152;-80
2023/12/12 06:14:32;;;;;;;53.13;29.13;;;;;;;2.25;100.00;99919.34;5032225;28;20053;-79
2023/12/12 06:16:58;;;;;;;53.28;25.42;;;;;;;2.15;100.00;99939.78;5032189;28;20518;-77
2023/12/12 06:19:24;;;;;;;66.60;41.85;;;;;;;2.68;100.00;99998.88;5025030;28;20443;-79
2023/12/12 06:21:53;;;;;;;52.92;29.88;;;;;;;2.28;100.00;99950.59;5032274;28;20068;-79
2023/12/12 06:24:18;;;;;;;;;;;;;;;2.50;100.00;99996.44;5032694;28;20029;-82
2023/12/12 06:26:44;;;;;;;54.38;29.45;;;;;;;2.31;100.00;99976.56;5032005;28;19913;-78
2023/12/12 06:29:09;;;;;;;50.60;25.92;;;;;;;2.15;100.00;99973.97;5014137;28;20025;-78
2023/12/12 06:31:35;;;;;;;51.33;24.48;;;;;;;2.09;100.00;99941.25;5019618;28;20045;-78
2023/12/12 06:34:01;;;;;;;48.67;23.02;;;;;;;2.16;100.00;99967.72;5031491;28;20494;-80
2023/12/12 06:36:26;;;;;;;61.90;37.88;;;;;;;2.45;100.00;100003.19;5032261;28;20026;-80
2023/12/12 06:38:52;;;;;;;95.63;50.55;;;;;;;2.19;100.00;99967.38;5035307;28;20029;-79
2023/12/12 06:41:18;;;;;;;73.68;36.45;;;;;;;2.48;100.00;99989.69;5035638;28;20032;-80
2023/12/12 06:43:43;;;;;;;61.35;28.98;;;;;;;4.09;100.00;100012.91;5031939;28;20025;-78
2023/12/12 06:46:09;;;;;;;54.63;23.85;;;;;;;3.81;100.00;99992.34;5030831;28;20087;-78
2023/12/12 06:48:34;;;;;;;52.20;28.77;;;;;;;6.01;100.00;100016.41;5042085;28;20117;-81
2023/12/12 06:50:59;;;;;;;55.55;30.45;;;;;;;7.10;100.00;100028.34;5049038;28;20409;-79
2023/12/12 06:53:25;;;;;;;51.60;30.33;;;;;;;7.93;99.41;100012.25;5049918;28;20031;-78
2023/12/12 06:55:50;;;;;;;45.40;24.33;;;;;;;9.10;94.90;100024.00;5049259;28;20021;-82
2023/12/12 06:58:16;;;;;;;40.38;22.90;;;;;;;8.00;96.53;100013.88;5050362;28;20021;-80
2023/12/12 07:00:42;;;;;;;46.03;24.23;;;;;;;8.23;94.98;100025.94;5051133;28;20036;-78
2023/12/12 07:03:10;;;;;;;41.88;24.67;;;;;;;8.90;98.73;100017.91;5050947;28;20025;-79
2023/12/12 07:05:36;;;;;;;39.22;23.67;;;;;;;10.13;78.94;100001.69;5051235;28;20029;-79
2023/12/12 07:08:02;;;;;;;45.13;24.52;;;;;;;8.33;89.89;100020.22;5050111;28;20028;-79
2023/12/12 07:10:27;;;;;;;40.08;22.30;;;;;;;8.44;93.20;100004.50;5049181;28;20124;-79
2023/12/12 07:12:53;;;;;;;56.25;39.30;;;;;;;8.46;93.46;100004.31;5051582;28;20528;-78
2023/12/12 07:15:19;;;;;;;47.45;29.98;;;;;;;7.48;97.19;99991.56;5051436;28;20032;-79
2023/12/12 07:17:45;;;;;;;50.97;34.58;;;;;;;7.83;98.28;100002.84;5050080;28;20538;-80
2023/12/12 07:20:11;;;;;;;39.60;22.30;;;;;;;10.26;82.83;100033.56;5043949;28;20021;-80
2023/12/12 07:22:38;;;;;;;43.85;23.13;;;;;;;8.40;92.36;100029.03;5030504;28;20041;-80
2023/12/12 07:25:04;;;;;;;36.40;21.52;;;;;;;8.25;94.65;100005.31;5034208;28;20028;-78
2023/12/12 07:27:29;;;;;;;35.03;21.13;;;;;;;9.90;83.85;100047.56;5051331;28;20028;-79
2023/12/12 07:29:55;;;;;;;32.85;19.73;;;;;;;9.25;87.39;100045.84;5049053;28;20078;-78
2023/12/12 07:32:20;;;;;;;37.22;22.30;;;;;;;8.24;91.56;100032.91;5049111;28;20060;-79
2023/12/12 07:34:46;;;;;;;43.72;25.38;;;;;;;9.70;88.21;100041.53;5045094;28;20482;-79
2023/12/12 07:37:11;;;;;;;37.67;23.20;;;;;;;9.87;80.81;100069.31;5041449;28;20024;-79
2023/12/12 07:39:36;;;;;;;43.17;25.83;;;;;;;10.29;83.16;100021.66;5038679;28;20108;-80
2023/12/12 07:42:02;;;;;;;42.63;27.88;;;;;;;10.49;78.44;100050.03;5035743;28;20065;-79
2023/12/12 07:44:28;;;;;;;44.28;28.42;;;;;;;9.68;82.48;100075.56;5042697;28;20025;-80
2023/12/12 07:46:53;;;;;;;41.33;25.33;;;;;;;10.49;78.69;100085.50;5047509;28;20036;-79
2023/12/12 07:49:19;;;;;;;42.53;24.40;;;;;;;10.51;78.09;100071.97;5046798;28;20025;-81
2023/12/12 07:51:45;;;;;;;42.00;25.52;;;;;;;9.46;84.21;100083.84;5045503;28;20556;-80
2023/12/12 07:54:10;;;;;;;38.88;23.95;;;;;;;8.34;90.78;100045.78;5036739;28;20040;-80
2023/12/12 07:56:36;;;;;;;48.20;27.88;;;;;;;8.32;89.61;100053.16;5046836;28;20040;-79
2023/12/12 07:59:01;;;;;;;42.70;24.05;;;;;;;7.08;98.96;100051.59;5048878;28;20025;-82
2023/12/12 08:01:27;;;;;;;41.10;23.50;;;;;;;6.17;100.00;100044.41;5044973;28;20037;-79
2023/12/12 08:03:52;;;;;;;41.60;24.48;;;;;;;5.95;100.00;100036.50;5048415;28;20033;-78
2023/12/12 08:06:18;;;;;;;38.42;22.63;;;;;;;5.47;100.00;100036.16;5050234;28;20479;-79
2023/12/12 08:08:44;;;;;;;35.75;20.30;;;;;;;4.92;100.00;100005.78;5053611;28;20582;-78
2023/12/12 08:11:15;;;;;;;36.78;19.40;;;;;;;5.41;100.00;100055.41;5053628;28;20052;-79
2023/12/12 08:13:41;;;;;;;41.20;22.60;;;;;;;5.04;100.00;100054.53;5053256;28;20029;-79
2023/12/12 08:16:07;;;;;;;40.55;21.25;;;;;;;5.26;100.00;100036.13;5054949;28;20086;-79
2023/12/12 08:18:32;;;;;;;37.13;20.73;;;;;;;5.16;100.00;100034.56;5054927;28;20025;-78
2023/12/12 08:20:58;;;;;;;41.72;23.17;;;;;;;5.47;100.00;100033.50;5046814;28;20095;-79
2023/12/12 08:23:23;;;;;;;47.10;24.95;;;;;;;5.92;100.00;100047.41;5054576;28;20608;-79
2023/12/12 08:25:49;;;;;;;38.13;20.38;;;;;;;5.73;100.00;100026.88;5054483;28;20033;-78
2023/12/12 08:28:15;;;;;;;40.03;21.90;;;;;;;5.54;100.00;100017.75;5053066;28;20547;-77
2023/12/12 08:30:41;;;;;;;39.35;20.95;;;;;;;5.90;100.00;100049.44;5051389;28;20064;-79
2023/12/12 08:33:06;;;;;;;45.28;23.65;;;;;;;6.17;100.00;100044.41;5034734;28;20437;-80
2023/12/12 08:35:31;;;;;;;52.47;26.20;;;;;;;6.13;100.00;100038.69;5033803;28;20057;-79
2023/12/12 08:37:57;;;;;;;46.03;23.65;;;;;;;6.33;100.00;100054.72;5033068;28;20025;-80
2023/12/12 08:40:22;;;;;;;45.45;22.80;;;;;;;5.94;100.00;100042.75;5038936;28;20033;-79
2023/12/12 08:42:48;;;;;;;44.15;23.13;;;;;;;6.32;100.00;100010.72;5054007;28;20657;-78
2023/12/12 08:45:13;;;;;;;41.00;23.50;;;;;;;5.79;100.00;100003.13;5054108;28;20476;-78
2023/12/12 08:47:39;;;;;;;47.35;25.45;;;;;;;5.76;100.00;100031.78;5054023;28;20021;-79
2023/12/12 08:50:05;;;;;;;46.85;24.05;;;;;;;7.22;100.00;100048.78;5053818;28;20052;-78
2023/12/12 08:52:33;;;;;;;42.85;22.73;;;;;;;7.41;100.00;100041.09;5053688;28;20528;-78
2023/12/12 08:54:58;;;;;;;45.78;24.92;;;;;;;7.89;100.00;100001.22;5054165;28;20043;-78
2023/12/12 08:57:24;;;;;;;44.17;23.77;;;;;;;7.81;100.00;100030.63;5053516;28;20029;-79
2023/12/12 08:59:49;;;;;;;45.20;23.67;;;;;;;7.69;100.00;100011.00;5053910;28;20052;-78
2023/12/12 09:02:16;;;;;;;45.88;24.95;;;;;;;7.28;100.00;99998.63;5044101;28;20034;-77
2023/12/12 09:04:41;;;;;;;43.17;24.42;;;;;;;7.62;100.00;100019.75;5032786;28;20025;-77
2023/12/12 09:07:07;;;;;;;40.10;21.88;;;;;;;7.38;100.00;99993.75;5033754;28;20402;-77
2023/12/12 09:09:32;;;;;;;39.13;21.65;;;;;;;7.96;100.00;100012.66;5033363;28;20107;-79
2023/12/12 09:12:00;;;;;;;45.45;24.05;;;;;;;8.16;100.00;100002.03;5036525;28;20470;-77
2023/12/12 09:14:27;;;;;;;42.85;23.17;;;;;;;7.99;100.00;99998.97;5033630;28;20079;-77
2023/12/12 09:16:53;;;;;;;43.25;23.35;;;;;;;8.63;100.00;100024.09;5033274;28;20486;-77
2023/12/12 09:19:18;;;;;;;41.72;22.08;;;;;;;7.38;100.00;99989.28;5032572;28;20033;-78
2023/12/12 09:21:44;;;;;;;40.45;21.08;;;;;;;6.94;100.00;99965.84;5046051;28;20454;-81
2023/12/12 09:24:09;;;;;;;44.03;21.83;;;;;;;7.01;100.00;99975.47;5051911;28;20032;-79
2023/12/12 09:26:35;;;;;;;37.72;21.30;;;;;;;8.35;100.00;99994.25;5053200;28;20017;-77
2023/12/12 09:29:01;;;;;;;40.45;21.42;;;;;;;7.73;100.00;99980.38;5053138;28;20032;-77
2023/12/12 09:31:27;;;;;;;43.55;21.77;;;;;;;7.63;100.00;99962.19;5045680;28;20620;-77
2023/12/12 09:33:54;;;;;;;40.78;22.45;;;;;;;8.32;100.00;100005.31;5053468;28;20041;-80
2023/12/12 09:36:19;;;;;;;43.67;20.70;;;;;;;8.16;100.00;99990.59;5053174;28;20028;-78
2023/12/12 09:38:45;;;;;;;41.95;21.23;;;;;;;8.18;100.00;99999.19;5053341;28;20036;-79
2023/12/12 09:41:20;;;;;;;43.72;22.45;;;;;;;8.23;100.00;99962.19;5051654;28;20021;-78
2023/12/12 09:43:47;;;;;;;37.60;20.55;;;;;;;8.60;100.00;99994.47;5033484;28;20033;-78
2023/12/12 09:46:13;;;;;;;57.03;30.07;;;;;;;8.19;100.00;99984.88;5033229;28;20080;-78
2023/12/12 09:48:39;;;;;;;62.15;33.38;;;;;;;8.27;100.00;99984.66;5032881;28;20025;-80
2023/12/12 09:51:06;;;;;;;60.25;32.60;;;;;;;8.21;100.00;99977.50;5036423;28;20393;-78
2023/12/12 09:53:35;;;;;;;62.70;33.38;;;;;;;8.36;100.00;99959.53;5037563;28;20029;-78
2023/12/12 09:56:04;;;;;;;62.33;33.28;;;;;;;8.44;100.00;99996.53;5032900;28;20033;-79
2023/12/12 09:58:30;;;;;;;61.92;31.45;;;;;;;8.22;100.00;99955.25;5031421;28;20456;-78
2023/12/12 10:00:58;;;;;;;59.30;33.47;;;;;;;8.70;100.00;99959.47;5035712;28;20478;-79
2023/12/12 10:03:24;;;;;;;57.78;30.58;;;;;;;8.61;100.00;99957.03;5052561;28;20021;-79
2023/12/12 10:05:54;;;;;;;53.38;29.77;;;;;;;8.96;100.00;99948.75;5052793;28;20037;-79
2023/12/12 10:08:20;;;;;;;53.05;29.95;;;;;;;8.92;100.00;99957.34;5051313;28;20032;-78
2023/12/12 10:10:45;;;;;;;54.88;29.35;;;;;;;8.75;100.00;99933.09;5051812;28;20024;-78
2023/12/12 10:13:11;;;;;;;58.00;31.60;;;;;;;9.59;100.00;99976.47;5035388;28;20444;-78
2023/12/12 10:15:36;;;;;;;57.17;30.38;;;;;;;9.33;100.00;99986.22;5032605;28;20033;-78
2023/12/12 10:18:02;;;;;;;50.85;27.38;;;;;;;9.88;100.00;99953.72;5032347;28;20025;-78
2023/12/12 10:20:31;;;;;;;50.95;26.65;;;;;;;9.65;100.00;99978.28;5032384;28;20022;-78
2023/12/12 10:22:58;;;;;;;55.00;29.48;;;;;;;10.04;100.00;99971.84;5033765;28;20029;-79
2023/12/12 10:25:24;;;;;;;45.83;27.48;;;;;;;9.69;100.00;99965.34;5032262;28;20052;-79
2023/12/12 10:27:53;;;;;;;53.72;29.27;;;;;;;9.93;100.00;99969.06;5032053;28;20025;-79
2023/12/12 10:30:22;;;;;;;49.22;27.20;;;;;;;10.00;100.00;99978.63;5031437;28;20036;-79
2023/12/12 10:32:51;;;;;;;52.33;27.02;;;;;;;10.23;94.52;99940.72;5034131;28;20149;-79
2023/12/12 10:35:16;;;;;;;;;;;;;;;10.86;89.67;99985.00;5032412;28;20029;-80
2023/12/12 10:37:41;;;;;;;45.25;25.27;;;;;;;11.13;89.92;99973.22;5032009;28;19962;-78
2023/12/12 10:40:15;;;;;;;48.05;27.02;;;;;;;11.40;89.65;99984.34;5031862;28;20036;-80
2023/12/12 10:42:40;;;;;;;50.72;27.60;;;;;;;11.26;89.71;99967.72;5045328;28;20063;-78
2023/12/12 10:45:09;;;;;;;51.08;26.90;;;;;;;11.39;92.28;99972.06;5051414;28;20063;-84
2023/12/12 10:47:39;;;;;;;43.78;23.70;;;;;;;11.72;85.93;99946.72;5050395;28;20547;-79
2023/12/12 10:50:09;;;;;;;46.17;23.55;;;;;;;11.83;80.54;99956.63;5051745;28;20021;-79
2023/12/12 10:52:35;;;;;;;43.05;24.50;;;;;;;11.95;77.25;99933.44;5051588;28;20033;-77
2023/12/12 10:55:02;;;;;;;41.63;23.90;;;;;;;12.53;80.13;99922.97;5051516;28;20029;-78
2023/12/12 10:57:29;;;;;;;38.53;21.45;;;;;;;12.45;75.43;99965.06;5051580;28;20029;-80
2023/12/12 10:59:56;;;;;;;39.22;22.58;;;;;;;12.69;76.96;99953.50;5051302;28;20029;-80
2023/12/12 11:02:23;;;;;;;40.72;22.70;;;;;;;13.24;72.31;99977.13;5051323;28;20116;-78
2023/12/12 11:04:49;;;;;;;41.80;24.90;;;;;;;13.23;72.55;99932.66;5033864;28;20524;-78
2023/12/12 11:07:15;;;;;;;37.97;23.50;;;;;;;13.69;68.71;99962.97;5051329;28;20522;-78
2023/12/12 11:09:41;;;;;;;37.45;21.98;;;;;;;14.12;69.40;99966.91;5051512;28;20363;-81